sensor_id;sensor_type;location;lat;lon;timestamp;temperature;humidity
18611;DHT22;9435;52.122;5.502;2023-04-03T00:00:52;3.50;99.90
18611;DHT22;9435;52.122;5.502;2023-04-03T00:03:19;3.50;99.90
18611;DHT22;9435;52.122;5.502;2023-04-03T00:05:46;3.50;99.90
18611;DHT22;9435;52.122;5.502;2023-04-03T00:08:13;3.50;99.90
18611;DHT22;9435;52.122;5.502;2023-04-03T00:10:42;3.40;99.90
18611;DHT22;9435;52.122;5.502;2023-04-03T00:13:10;3.40;99.90
18611;DHT22;9435;52.122;5.502;2023-04-03T00:15:37;3.40;99.90
18611;DHT22;9435;52.122;5.502;2023-04-03T00:18:05;3.30;99.90
18611;DHT22;9435;52.122;5.502;2023-04-03T00:20:33;3.30;99.90
18611;DHT22;9435;52.122;5.502;2023-04-03T00:23:00;3.20;99.90
18611;DHT22;9435;52.122;5.502;2023-04-03T00:25:28;3.30;99.90
18611;DHT22;9435;52.122;5.502;2023-04-03T00:27:57;3.30;99.90
18611;DHT22;9435;52.122;5.502;2023-04-03T00:30:24;3.20;99.90
18611;DHT22;9435;52.122;5.502;2023-04-03T00:32:52;3.20;99.90
18611;DHT22;9435;52.122;5.502;2023-04-03T00:35:20;3.20;99.90
18611;DHT22;9435;52.122;5.502;2023-04-03T00:37:47;3.10;99.90
18611;DHT22;9435;52.122;5.502;2023-04-03T00:40:15;3.10;99.90
18611;DHT22;9435;52.122;5.502;2023-04-03T00:42:44;3.10;99.90
18611;DHT22;9435;52.122;5.502;2023-04-03T00:45:31;3.10;99.90
18611;DHT22;9435;52.122;5.502;2023-04-03T00:48:00;3.00;99.90
18611;DHT22;9435;52.122;5.502;2023-04-03T00:50:29;3.00;99.90
18611;DHT22;9435;52.122;5.502;2023-04-03T00:52:57;2.90;99.90
18611;DHT22;9435;52.122;5.502;2023-04-03T00:55:24;2.90;99.90
18611;DHT22;9435;52.122;5.502;2023-04-03T00:57:52;2.90;99.90
18611;DHT22;9435;52.122;5.502;2023-04-03T01:00:20;2.90;99.90
18611;DHT22;9435;52.122;5.502;2023-04-03T01:02:50;2.90;99.90
18611;DHT22;9435;52.122;5.502;2023-04-03T01:05:19;2.80;99.90
18611;DHT22;9435;52.122;5.502;2023-04-03T01:07:47;2.80;99.90
18611;DHT22;9435;52.122;5.502;2023-04-03T01:10:15;2.80;99.90
18611;DHT22;9435;52.122;5.502;2023-04-03T01:12:46;2.70;99.90
18611;DHT22;9435;52.122;5.502;2023-04-03T01:15:16;2.70;99.90
18611;DHT22;9435;52.122;5.502;2023-04-03T01:17:45;2.70;99.90
18611;DHT22;9435;52.122;5.502;2023-04-03T01:20:56;2.70;99.90
18611;DHT22;9435;52.122;5.502;2023-04-03T01:23:45;2.70;99.90
18611;DHT22;9435;52.122;5.502;2023-04-03T01:26:14;2.60;99.90
18611;DHT22;9435;52.122;5.502;2023-04-03T01:28:41;2.60;99.90
18611;DHT22;9435;52.122;5.502;2023-04-03T01:31:15;2.50;99.90
18611;DHT22;9435;52.122;5.502;2023-04-03T01:33:47;2.50;99.90
18611;DHT22;9435;52.122;5.502;2023-04-03T01:36:19;2.50;99.90
18611;DHT22;9435;52.122;5.502;2023-04-03T01:38:47;2.40;99.90
18611;DHT22;9435;52.122;5.502;2023-04-03T01:41:14;2.40;99.90
18611;DHT22;9435;52.122;5.502;2023-04-03T01:43:42;2.30;99.90
18611;DHT22;9435;52.122;5.502;2023-04-03T01:46:09;2.30;99.90
18611;DHT22;9435;52.122;5.502;2023-04-03T01:48:36;2.30;99.90
18611;DHT22;9435;52.122;5.502;2023-04-03T01:51:04;2.30;99.90
18611;DHT22;9435;52.122;5.502;2023-04-03T01:53:32;2.20;99.90
18611;DHT22;9435;52.122;5.502;2023-04-03T01:55:59;2.20;99.90
18611;DHT22;9435;52.122;5.502;2023-04-03T01:58:26;2.10;99.90
18611;DHT22;9435;52.122;5.502;2023-04-03T02:00:53;2.10;99.90
18611;DHT22;9435;52.122;5.502;2023-04-03T02:03:20;2.10;99.90
18611;DHT22;9435;52.122;5.502;2023-04-03T02:05:47;2.10;99.90
18611;DHT22;9435;52.122;5.502;2023-04-03T02:08:16;2.10;99.90
18611;DHT22;9435;52.122;5.502;2023-04-03T02:10:44;2.10;99.90
18611;DHT22;9435;52.122;5.502;2023-04-03T02:13:11;2.00;99.90
18611;DHT22;9435;52.122;5.502;2023-04-03T02:15:38;2.00;99.90
18611;DHT22;9435;52.122;5.502;2023-04-03T02:18:06;2.00;99.90
18611;DHT22;9435;52.122;5.502;2023-04-03T02:20:33;1.90;99.90
18611;DHT22;9435;52.122;5.502;2023-04-03T02:23:00;2.00;99.90
18611;DHT22;9435;52.122;5.502;2023-04-03T02:25:30;1.90;99.90
18611;DHT22;9435;52.122;5.502;2023-04-03T02:27:58;1.90;99.90
18611;DHT22;9435;52.122;5.502;2023-04-03T02:30:25;1.90;99.90
18611;DHT22;9435;52.122;5.502;2023-04-03T02:32:52;2.00;99.90
18611;DHT22;9435;52.122;5.502;2023-04-03T02:35:19;2.00;99.90
18611;DHT22;9435;52.122;5.502;2023-04-03T02:37:46;2.00;99.90
18611;DHT22;9435;52.122;5.502;2023-04-03T02:40:13;2.00;99.90
18611;DHT22;9435;52.122;5.502;2023-04-03T02:42:41;2.10;99.90
18611;DHT22;9435;52.122;5.502;2023-04-03T02:45:09;2.10;99.90
18611;DHT22;9435;52.122;5.502;2023-04-03T02:47:36;2.10;99.90
18611;DHT22;9435;52.122;5.502;2023-04-03T02:50:04;2.10;99.90
18611;DHT22;9435;52.122;5.502;2023-04-03T02:52:31;2.10;99.90
18611;DHT22;9435;52.122;5.502;2023-04-03T02:54:58;2.00;99.90
18611;DHT22;9435;52.122;5.502;2023-04-03T02:57:25;1.90;99.90
18611;DHT22;9435;52.122;5.502;2023-04-03T02:59:54;1.90;99.90
18611;DHT22;9435;52.122;5.502;2023-04-03T03:02:21;1.90;99.90
18611;DHT22;9435;52.122;5.502;2023-04-03T03:04:48;1.90;99.90
18611;DHT22;9435;52.122;5.502;2023-04-03T03:07:15;1.90;99.90
18611;DHT22;9435;52.122;5.502;2023-04-03T03:09:42;1.80;99.90
18611;DHT22;9435;52.122;5.502;2023-04-03T03:12:09;1.80;99.90
18611;DHT22;9435;52.122;5.502;2023-04-03T03:14:36;1.80;99.90
18611;DHT22;9435;52.122;5.502;2023-04-03T03:17:04;1.80;99.90
18611;DHT22;9435;52.122;5.502;2023-04-03T03:19:31;1.80;99.90
18611;DHT22;9435;52.122;5.502;2023-04-03T03:21:58;1.80;99.90
18611;DHT22;9435;52.122;5.502;2023-04-03T03:24:26;1.80;99.90
18611;DHT22;9435;52.122;5.502;2023-04-03T03:26:53;1.70;99.90
18611;DHT22;9435;52.122;5.502;2023-04-03T03:29:20;1.70;99.90
18611;DHT22;9435;52.122;5.502;2023-04-03T03:31:47;1.70;99.90
18611;DHT22;9435;52.122;5.502;2023-04-03T03:34:15;1.70;99.90
18611;DHT22;9435;52.122;5.502;2023-04-03T03:36:42;1.70;99.90
18611;DHT22;9435;52.122;5.502;2023-04-03T03:39:10;1.70;99.90
18611;DHT22;9435;52.122;5.502;2023-04-03T03:41:37;1.70;99.90
18611;DHT22;9435;52.122;5.502;2023-04-03T03:44:04;1.70;99.90
18611;DHT22;9435;52.122;5.502;2023-04-03T03:46:31;1.60;99.90
18611;DHT22;9435;52.122;5.502;2023-04-03T03:48:58;1.70;99.90
18611;DHT22;9435;52.122;5.502;2023-04-03T03:51:27;1.70;99.90
18611;DHT22;9435;52.122;5.502;2023-04-03T03:53:54;1.60;99.90
18611;DHT22;9435;52.122;5.502;2023-04-03T03:56:21;1.60;99.90
18611;DHT22;9435;52.122;5.502;2023-04-03T03:58:48;1.60;99.90
18611;DHT22;9435;52.122;5.502;2023-04-03T04:01:16;1.60;99.90
18611;DHT22;9435;52.122;5.502;2023-04-03T04:03:43;1.50;99.90
18611;DHT22;9435;52.122;5.502;2023-04-03T04:06:10;1.50;99.90
18611;DHT22;9435;52.122;5.502;2023-04-03T04:08:39;1.50;99.90
18611;DHT22;9435;52.122;5.502;2023-04-03T04:11:06;1.50;99.90
18611;DHT22;9435;52.122;5.502;2023-04-03T04:13:37;1.50;99.90
18611;DHT22;9435;52.122;5.502;2023-04-03T04:16:07;1.50;99.90
18611;DHT22;9435;52.122;5.502;2023-04-03T04:18:35;1.50;99.90
18611;DHT22;9435;52.122;5.502;2023-04-03T04:21:02;1.40;99.90
18611;DHT22;9435;52.122;5.502;2023-04-03T04:23:29;1.40;99.90
18611;DHT22;9435;52.122;5.502;2023-04-03T04:25:58;1.40;99.90
18611;DHT22;9435;52.122;5.502;2023-04-03T04:28:25;1.40;99.90
18611;DHT22;9435;52.122;5.502;2023-04-03T04:30:52;1.30;99.90
18611;DHT22;9435;52.122;5.502;2023-04-03T04:33:19;1.30;99.90
18611;DHT22;9435;52.122;5.502;2023-04-03T04:35:47;1.30;99.90
18611;DHT22;9435;52.122;5.502;2023-04-03T04:38:14;1.20;99.90
18611;DHT22;9435;52.122;5.502;2023-04-03T04:40:41;1.20;99.90
18611;DHT22;9435;52.122;5.502;2023-04-03T04:43:10;1.20;99.90
18611;DHT22;9435;52.122;5.502;2023-04-03T04:45:40;1.20;99.90
18611;DHT22;9435;52.122;5.502;2023-04-03T04:48:07;1.10;99.90
18611;DHT22;9435;52.122;5.502;2023-04-03T04:50:34;1.10;99.90
18611;DHT22;9435;52.122;5.502;2023-04-03T04:53:01;1.20;99.90
18611;DHT22;9435;52.122;5.502;2023-04-03T04:55:29;1.10;99.90
18611;DHT22;9435;52.122;5.502;2023-04-03T04:57:56;1.10;99.90
18611;DHT22;9435;52.122;5.502;2023-04-03T05:00:25;1.10;99.90
18611;DHT22;9435;52.122;5.502;2023-04-03T05:02:52;1.10;99.90
18611;DHT22;9435;52.122;5.502;2023-04-03T05:05:19;1.20;99.90
18611;DHT22;9435;52.122;5.502;2023-04-03T05:07:46;1.20;99.90
18611;DHT22;9435;52.122;5.502;2023-04-03T05:10:13;1.10;99.90
18611;DHT22;9435;52.122;5.502;2023-04-03T05:12:40;1.10;99.90
18611;DHT22;9435;52.122;5.502;2023-04-03T05:15:08;1.10;99.90
18611;DHT22;9435;52.122;5.502;2023-04-03T05:17:37;1.10;99.90
18611;DHT22;9435;52.122;5.502;2023-04-03T05:20:04;1.10;99.90
18611;DHT22;9435;52.122;5.502;2023-04-03T05:22:32;1.10;99.90
18611;DHT22;9435;52.122;5.502;2023-04-03T05:24:59;1.10;99.90
18611;DHT22;9435;52.122;5.502;2023-04-03T05:27:26;1.10;99.90
18611;DHT22;9435;52.122;5.502;2023-04-03T05:29:54;1.10;99.90
18611;DHT22;9435;52.122;5.502;2023-04-03T05:32:22;1.10;99.90
18611;DHT22;9435;52.122;5.502;2023-04-03T05:34:50;1.10;99.90
18611;DHT22;9435;52.122;5.502;2023-04-03T05:37:18;1.10;99.90
18611;DHT22;9435;52.122;5.502;2023-04-03T05:39:45;1.10;99.90
18611;DHT22;9435;52.122;5.502;2023-04-03T05:42:12;1.10;99.90
18611;DHT22;9435;52.122;5.502;2023-04-03T05:44:40;1.10;99.90
18611;DHT22;9435;52.122;5.502;2023-04-03T05:47:07;1.10;99.90
18611;DHT22;9435;52.122;5.502;2023-04-03T05:49:34;1.20;99.90
18611;DHT22;9435;52.122;5.502;2023-04-03T05:52:11;1.10;99.90
18611;DHT22;9435;52.122;5.502;2023-04-03T05:54:43;1.20;99.90
18611;DHT22;9435;52.122;5.502;2023-04-03T05:57:13;1.20;99.90
18611;DHT22;9435;52.122;5.502;2023-04-03T05:59:41;1.30;99.90
18611;DHT22;9435;52.122;5.502;2023-04-03T06:02:10;1.30;99.90
18611;DHT22;9435;52.122;5.502;2023-04-03T06:04:37;1.30;99.90
18611;DHT22;9435;52.122;5.502;2023-04-03T06:07:06;1.40;99.90
18611;DHT22;9435;52.122;5.502;2023-04-03T06:09:34;1.40;99.90
18611;DHT22;9435;52.122;5.502;2023-04-03T06:12:01;1.50;99.90
18611;DHT22;9435;52.122;5.502;2023-04-03T06:14:28;1.50;99.90
18611;DHT22;9435;52.122;5.502;2023-04-03T06:16:55;1.50;99.90
18611;DHT22;9435;52.122;5.502;2023-04-03T06:19:22;1.60;99.90
18611;DHT22;9435;52.122;5.502;2023-04-03T06:21:50;1.60;99.90
18611;DHT22;9435;52.122;5.502;2023-04-03T06:24:18;1.70;99.90
18611;DHT22;9435;52.122;5.502;2023-04-03T06:26:47;1.80;99.90
18611;DHT22;9435;52.122;5.502;2023-04-03T06:29:16;1.80;99.90
18611;DHT22;9435;52.122;5.502;2023-04-03T06:31:44;1.90;99.90
18611;DHT22;9435;52.122;5.502;2023-04-03T06:34:11;2.00;99.90
18611;DHT22;9435;52.122;5.502;2023-04-03T06:36:39;2.10;99.90
18611;DHT22;9435;52.122;5.502;2023-04-03T06:39:06;2.20;99.90
18611;DHT22;9435;52.122;5.502;2023-04-03T06:41:35;2.30;99.90
18611;DHT22;9435;52.122;5.502;2023-04-03T06:44:02;2.40;99.90
18611;DHT22;9435;52.122;5.502;2023-04-03T06:46:29;2.60;99.90
18611;DHT22;9435;52.122;5.502;2023-04-03T06:48:56;2.60;99.90
18611;DHT22;9435;52.122;5.502;2023-04-03T06:51:24;2.70;99.90
18611;DHT22;9435;52.122;5.502;2023-04-03T06:53:53;2.80;99.90
18611;DHT22;9435;52.122;5.502;2023-04-03T06:56:20;2.90;99.90
18611;DHT22;9435;52.122;5.502;2023-04-03T06:58:49;3.00;99.90
18611;DHT22;9435;52.122;5.502;2023-04-03T07:01:17;3.10;99.90
18611;DHT22;9435;52.122;5.502;2023-04-03T07:03:46;3.10;99.90
18611;DHT22;9435;52.122;5.502;2023-04-03T07:06:14;3.10;99.90
18611;DHT22;9435;52.122;5.502;2023-04-03T07:08:42;3.20;99.90
18611;DHT22;9435;52.122;5.502;2023-04-03T07:11:10;3.30;99.90
18611;DHT22;9435;52.122;5.502;2023-04-03T07:13:38;3.40;99.90
18611;DHT22;9435;52.122;5.502;2023-04-03T07:16:08;3.50;99.90
18611;DHT22;9435;52.122;5.502;2023-04-03T07:18:35;3.50;99.90
18611;DHT22;9435;52.122;5.502;2023-04-03T07:21:03;3.80;99.90
18611;DHT22;9435;52.122;5.502;2023-04-03T07:23:30;3.80;99.90
18611;DHT22;9435;52.122;5.502;2023-04-03T07:25:57;4.10;99.90
18611;DHT22;9435;52.122;5.502;2023-04-03T07:28:25;4.10;99.90
18611;DHT22;9435;52.122;5.502;2023-04-03T07:30:53;4.60;99.90
18611;DHT22;9435;52.122;5.502;2023-04-03T07:33:22;4.20;99.90
18611;DHT22;9435;52.122;5.502;2023-04-03T07:35:49;4.50;99.90
18611;DHT22;9435;52.122;5.502;2023-04-03T07:38:16;4.40;99.90
18611;DHT22;9435;52.122;5.502;2023-04-03T07:40:46;4.30;99.90
18611;DHT22;9435;52.122;5.502;2023-04-03T07:43:14;4.40;99.90
18611;DHT22;9435;52.122;5.502;2023-04-03T07:45:41;4.70;99.90
18611;DHT22;9435;52.122;5.502;2023-04-03T07:48:09;4.70;99.90
18611;DHT22;9435;52.122;5.502;2023-04-03T07:50:40;4.60;99.90
18611;DHT22;9435;52.122;5.502;2023-04-03T07:53:07;4.70;99.90
18611;DHT22;9435;52.122;5.502;2023-04-03T07:55:35;4.90;99.90
18611;DHT22;9435;52.122;5.502;2023-04-03T07:58:08;5.10;99.90
18611;DHT22;9435;52.122;5.502;2023-04-03T08:00:36;5.20;99.90
18611;DHT22;9435;52.122;5.502;2023-04-03T08:03:03;5.30;99.90
18611;DHT22;9435;52.122;5.502;2023-04-03T08:05:31;5.10;99.90
18611;DHT22;9435;52.122;5.502;2023-04-03T08:08:00;5.10;99.90
18611;DHT22;9435;52.122;5.502;2023-04-03T08:10:27;5.30;99.90
18611;DHT22;9435;52.122;5.502;2023-04-03T08:12:56;5.40;99.90
18611;DHT22;9435;52.122;5.502;2023-04-03T08:15:23;5.40;99.90
18611;DHT22;9435;52.122;5.502;2023-04-03T08:17:50;5.50;99.90
18611;DHT22;9435;52.122;5.502;2023-04-03T08:20:17;5.90;99.90
18611;DHT22;9435;52.122;5.502;2023-04-03T08:22:44;5.60;99.90
18611;DHT22;9435;52.122;5.502;2023-04-03T08:25:13;5.90;99.90
18611;DHT22;9435;52.122;5.502;2023-04-03T08:27:40;5.90;99.90
18611;DHT22;9435;52.122;5.502;2023-04-03T08:30:08;6.10;99.90
18611;DHT22;9435;52.122;5.502;2023-04-03T08:32:36;5.90;99.90
18611;DHT22;9435;52.122;5.502;2023-04-03T08:35:04;6.00;99.90
18611;DHT22;9435;52.122;5.502;2023-04-03T08:37:31;5.80;99.90
18611;DHT22;9435;52.122;5.502;2023-04-03T08:40:01;6.10;99.90
18611;DHT22;9435;52.122;5.502;2023-04-03T08:42:40;5.90;99.90
18611;DHT22;9435;52.122;5.502;2023-04-03T08:45:13;6.20;99.90
18611;DHT22;9435;52.122;5.502;2023-04-03T08:47:48;6.30;99.90
18611;DHT22;9435;52.122;5.502;2023-04-03T08:50:28;6.30;99.90
18611;DHT22;9435;52.122;5.502;2023-04-03T08:52:58;6.20;99.90
18611;DHT22;9435;52.122;5.502;2023-04-03T08:55:27;6.50;99.90
18611;DHT22;9435;52.122;5.502;2023-04-03T08:58:01;6.40;99.90
18611;DHT22;9435;52.122;5.502;2023-04-03T09:00:31;6.60;99.90
18611;DHT22;9435;52.122;5.502;2023-04-03T09:03:01;6.70;99.90
18611;DHT22;9435;52.122;5.502;2023-04-03T09:05:35;6.90;99.90
18611;DHT22;9435;52.122;5.502;2023-04-03T09:08:14;7.20;99.90
18611;DHT22;9435;52.122;5.502;2023-04-03T09:10:45;6.90;99.90
18611;DHT22;9435;52.122;5.502;2023-04-03T09:13:23;6.70;99.90
18611;DHT22;9435;52.122;5.502;2023-04-03T09:15:52;7.00;99.90
18611;DHT22;9435;52.122;5.502;2023-04-03T09:18:21;7.10;99.90
18611;DHT22;9435;52.122;5.502;2023-04-03T09:20:56;6.90;99.90
18611;DHT22;9435;52.122;5.502;2023-04-03T09:23:29;6.90;99.90
18611;DHT22;9435;52.122;5.502;2023-04-03T09:26:01;7.20;99.90
18611;DHT22;9435;52.122;5.502;2023-04-03T09:28:35;7.10;99.90
18611;DHT22;9435;52.122;5.502;2023-04-03T09:31:16;7.10;99.90
18611;DHT22;9435;52.122;5.502;2023-04-03T09:33:45;7.40;99.90
18611;DHT22;9435;52.122;5.502;2023-04-03T09:36:13;7.30;99.90
18611;DHT22;9435;52.122;5.502;2023-04-03T09:38:40;7.40;99.90
18611;DHT22;9435;52.122;5.502;2023-04-03T09:41:16;7.30;99.90
18611;DHT22;9435;52.122;5.502;2023-04-03T09:43:52;7.40;99.90
18611;DHT22;9435;52.122;5.502;2023-04-03T09:46:28;7.70;99.90
18611;DHT22;9435;52.122;5.502;2023-04-03T09:48:57;7.80;99.90
18611;DHT22;9435;52.122;5.502;2023-04-03T09:51:25;7.70;99.90
18611;DHT22;9435;52.122;5.502;2023-04-03T09:53:53;8.00;99.90
18611;DHT22;9435;52.122;5.502;2023-04-03T09:56:23;8.00;99.90
18611;DHT22;9435;52.122;5.502;2023-04-03T09:59:08;7.90;99.90
18611;DHT22;9435;52.122;5.502;2023-04-03T10:01:42;7.80;99.90
18611;DHT22;9435;52.122;5.502;2023-04-03T10:04:11;7.90;99.90
18611;DHT22;9435;52.122;5.502;2023-04-03T10:06:40;8.10;99.90
18611;DHT22;9435;52.122;5.502;2023-04-03T10:09:18;8.40;99.90
18611;DHT22;9435;52.122;5.502;2023-04-03T10:12:03;8.30;99.90
18611;DHT22;9435;52.122;5.502;2023-04-03T10:14:34;8.00;99.90
18611;DHT22;9435;52.122;5.502;2023-04-03T10:17:21;8.10;99.90
18611;DHT22;9435;52.122;5.502;2023-04-03T10:19:54;8.10;99.90
18611;DHT22;9435;52.122;5.502;2023-04-03T10:22:31;7.80;99.90
18611;DHT22;9435;52.122;5.502;2023-04-03T10:25:10;8.10;99.90
18611;DHT22;9435;52.122;5.502;2023-04-03T10:27:48;8.30;99.90
18611;DHT22;9435;52.122;5.502;2023-04-03T10:30:32;8.50;99.90
18611;DHT22;9435;52.122;5.502;2023-04-03T10:35:59;8.50;99.90
18611;DHT22;9435;52.122;5.502;2023-04-03T10:38:34;8.70;99.90
18611;DHT22;9435;52.122;5.502;2023-04-03T10:41:07;8.30;99.90
18611;DHT22;9435;52.122;5.502;2023-04-03T10:43:44;8.90;99.90
18611;DHT22;9435;52.122;5.502;2023-04-03T10:46:25;8.50;99.90
18611;DHT22;9435;52.122;5.502;2023-04-03T10:49:05;8.80;99.90
18611;DHT22;9435;52.122;5.502;2023-04-03T10:51:41;8.70;99.90
18611;DHT22;9435;52.122;5.502;2023-04-03T10:54:13;9.00;99.90
18611;DHT22;9435;52.122;5.502;2023-04-03T10:56:46;8.70;99.90
18611;DHT22;9435;52.122;5.502;2023-04-03T10:59:19;8.80;99.90
18611;DHT22;9435;52.122;5.502;2023-04-03T11:01:52;9.10;99.90
18611;DHT22;9435;52.122;5.502;2023-04-03T11:04:21;9.10;99.90
18611;DHT22;9435;52.122;5.502;2023-04-03T11:06:53;9.20;99.90
18611;DHT22;9435;52.122;5.502;2023-04-03T11:09:25;9.10;99.90
18611;DHT22;9435;52.122;5.502;2023-04-03T11:11:56;9.20;99.90
18611;DHT22;9435;52.122;5.502;2023-04-03T11:14:28;9.40;99.90
18611;DHT22;9435;52.122;5.502;2023-04-03T11:17:06;9.20;99.90
18611;DHT22;9435;52.122;5.502;2023-04-03T11:19:39;9.40;99.90
18611;DHT22;9435;52.122;5.502;2023-04-03T11:22:12;9.30;99.90
18611;DHT22;9435;52.122;5.502;2023-04-03T11:24:54;9.50;99.90
18611;DHT22;9435;52.122;5.502;2023-04-03T11:27:23;9.50;99.90
18611;DHT22;9435;52.122;5.502;2023-04-03T11:29:52;9.90;99.90
18611;DHT22;9435;52.122;5.502;2023-04-03T11:32:52;9.40;99.90
18611;DHT22;9435;52.122;5.502;2023-04-03T11:35:22;9.20;99.90
18611;DHT22;9435;52.122;5.502;2023-04-03T11:37:51;9.20;99.90
18611;DHT22;9435;52.122;5.502;2023-04-03T11:40:22;9.20;99.90
18611;DHT22;9435;52.122;5.502;2023-04-03T11:42:54;9.30;99.90
18611;DHT22;9435;52.122;5.502;2023-04-03T11:45:37;9.00;99.90
18611;DHT22;9435;52.122;5.502;2023-04-03T11:48:08;9.10;99.90
18611;DHT22;9435;52.122;5.502;2023-04-03T11:50:54;9.00;99.90
18611;DHT22;9435;52.122;5.502;2023-04-03T11:53:35;9.20;99.90
18611;DHT22;9435;52.122;5.502;2023-04-03T11:56:06;9.50;99.90
18611;DHT22;9435;52.122;5.502;2023-04-03T11:59:22;9.60;99.90
18611;DHT22;9435;52.122;5.502;2023-04-03T12:01:50;9.30;99.90
18611;DHT22;9435;52.122;5.502;2023-04-03T12:04:21;9.50;99.90
18611;DHT22;9435;52.122;5.502;2023-04-03T12:07:13;9.70;99.90
18611;DHT22;9435;52.122;5.502;2023-04-03T12:10:14;9.80;99.90
18611;DHT22;9435;52.122;5.502;2023-04-03T12:12:42;9.50;99.90
18611;DHT22;9435;52.122;5.502;2023-04-03T12:15:23;9.50;99.90
18611;DHT22;9435;52.122;5.502;2023-04-03T12:17:52;9.80;99.90
18611;DHT22;9435;52.122;5.502;2023-04-03T12:23:29;9.80;99.90
18611;DHT22;9435;52.122;5.502;2023-04-03T12:26:03;9.90;99.90
18611;DHT22;9435;52.122;5.502;2023-04-03T12:28:37;9.50;99.90
18611;DHT22;9435;52.122;5.502;2023-04-03T12:31:05;9.50;99.90
18611;DHT22;9435;52.122;5.502;2023-04-03T12:33:44;9.80;99.90
18611;DHT22;9435;52.122;5.502;2023-04-03T12:36:22;9.80;99.90
18611;DHT22;9435;52.122;5.502;2023-04-03T12:39:03;10.10;99.90
18611;DHT22;9435;52.122;5.502;2023-04-03T12:41:37;10.00;99.90
18611;DHT22;9435;52.122;5.502;2023-04-03T12:44:37;10.20;99.90
18611;DHT22;9435;52.122;5.502;2023-04-03T12:47:22;10.10;99.90
18611;DHT22;9435;52.122;5.502;2023-04-03T12:49:49;9.90;99.90
18611;DHT22;9435;52.122;5.502;2023-04-03T12:52:21;9.70;99.90
18611;DHT22;9435;52.122;5.502;2023-04-03T12:54:52;9.60;99.90
18611;DHT22;9435;52.122;5.502;2023-04-03T12:57:21;9.70;99.90
18611;DHT22;9435;52.122;5.502;2023-04-03T12:59:50;9.80;99.90
18611;DHT22;9435;52.122;5.502;2023-04-03T13:02:23;9.70;99.90
18611;DHT22;9435;52.122;5.502;2023-04-03T13:04:50;9.80;99.90
18611;DHT22;9435;52.122;5.502;2023-04-03T13:07:23;9.80;99.90
18611;DHT22;9435;52.122;5.502;2023-04-03T13:09:58;9.50;99.90
18611;DHT22;9435;52.122;5.502;2023-04-03T13:12:26;9.80;99.90
18611;DHT22;9435;52.122;5.502;2023-04-03T13:14:55;9.60;99.90
18611;DHT22;9435;52.122;5.502;2023-04-03T13:17:23;9.80;99.90
18611;DHT22;9435;52.122;5.502;2023-04-03T13:19:51;9.60;99.90
18611;DHT22;9435;52.122;5.502;2023-04-03T13:22:27;9.70;99.90
18611;DHT22;9435;52.122;5.502;2023-04-03T13:24:59;9.60;99.90
18611;DHT22;9435;52.122;5.502;2023-04-03T13:27:30;9.70;99.90
18611;DHT22;9435;52.122;5.502;2023-04-03T13:30:00;9.70;99.90
18611;DHT22;9435;52.122;5.502;2023-04-03T13:32:30;9.70;99.90
18611;DHT22;9435;52.122;5.502;2023-04-03T13:34:58;9.80;99.90
18611;DHT22;9435;52.122;5.502;2023-04-03T13:37:28;9.70;99.90
18611;DHT22;9435;52.122;5.502;2023-04-03T13:40:08;9.70;99.90
18611;DHT22;9435;52.122;5.502;2023-04-03T13:42:38;9.80;99.90
18611;DHT22;9435;52.122;5.502;2023-04-03T13:45:18;9.80;99.90
18611;DHT22;9435;52.122;5.502;2023-04-03T13:47:47;9.60;99.90
18611;DHT22;9435;52.122;5.502;2023-04-03T13:50:16;9.60;99.90
18611;DHT22;9435;52.122;5.502;2023-04-03T13:52:47;9.70;99.90
18611;DHT22;9435;52.122;5.502;2023-04-03T13:55:22;9.80;99.90
18611;DHT22;9435;52.122;5.502;2023-04-03T13:57:56;9.70;99.90
18611;DHT22;9435;52.122;5.502;2023-04-03T14:00:35;9.50;99.90
18611;DHT22;9435;52.122;5.502;2023-04-03T14:03:12;9.60;99.90
18611;DHT22;9435;52.122;5.502;2023-04-03T14:05:39;9.50;99.90
18611;DHT22;9435;52.122;5.502;2023-04-03T14:08:06;9.70;99.90
18611;DHT22;9435;52.122;5.502;2023-04-03T14:10:37;9.60;99.90
18611;DHT22;9435;52.122;5.502;2023-04-03T14:13:04;9.60;99.90
18611;DHT22;9435;52.122;5.502;2023-04-03T14:15:32;9.80;99.90
18611;DHT22;9435;52.122;5.502;2023-04-03T14:17:59;9.90;99.90
18611;DHT22;9435;52.122;5.502;2023-04-03T14:20:27;10.00;99.90
18611;DHT22;9435;52.122;5.502;2023-04-03T14:22:54;9.90;99.90
18611;DHT22;9435;52.122;5.502;2023-04-03T14:25:22;10.00;99.90
18611;DHT22;9435;52.122;5.502;2023-04-03T14:27:53;10.20;99.90
18611;DHT22;9435;52.122;5.502;2023-04-03T14:30:23;10.40;99.90
18611;DHT22;9435;52.122;5.502;2023-04-03T14:32:51;10.20;99.90
18611;DHT22;9435;52.122;5.502;2023-04-03T14:35:19;10.00;99.90
18611;DHT22;9435;52.122;5.502;2023-04-03T14:37:47;9.70;99.90
18611;DHT22;9435;52.122;5.502;2023-04-03T14:40:17;9.70;99.90
18611;DHT22;9435;52.122;5.502;2023-04-03T14:42:44;9.70;99.90
18611;DHT22;9435;52.122;5.502;2023-04-03T14:45:14;9.80;99.90
18611;DHT22;9435;52.122;5.502;2023-04-03T14:47:45;9.90;99.90
18611;DHT22;9435;52.122;5.502;2023-04-03T14:50:16;10.00;99.90
18611;DHT22;9435;52.122;5.502;2023-04-03T14:52:44;10.00;99.90
18611;DHT22;9435;52.122;5.502;2023-04-03T14:55:13;9.80;99.90
18611;DHT22;9435;52.122;5.502;2023-04-03T14:57:41;9.80;99.90
18611;DHT22;9435;52.122;5.502;2023-04-03T15:00:15;9.80;99.90
18611;DHT22;9435;52.122;5.502;2023-04-03T15:02:43;10.00;99.90
18611;DHT22;9435;52.122;5.502;2023-04-03T15:05:11;10.10;99.90
18611;DHT22;9435;52.122;5.502;2023-04-03T15:07:41;9.90;99.90
18611;DHT22;9435;52.122;5.502;2023-04-03T15:10:16;9.90;99.90
18611;DHT22;9435;52.122;5.502;2023-04-03T15:12:44;10.10;99.90
18611;DHT22;9435;52.122;5.502;2023-04-03T15:15:12;10.10;99.90
18611;DHT22;9435;52.122;5.502;2023-04-03T15:17:40;9.80;99.90
18611;DHT22;9435;52.122;5.502;2023-04-03T15:20:13;10.10;99.90
18611;DHT22;9435;52.122;5.502;2023-04-03T15:22:40;9.70;99.90
18611;DHT22;9435;52.122;5.502;2023-04-03T15:25:08;9.50;99.90
18611;DHT22;9435;52.122;5.502;2023-04-03T15:27:35;9.40;99.90
18611;DHT22;9435;52.122;5.502;2023-04-03T15:30:03;9.30;99.90
18611;DHT22;9435;52.122;5.502;2023-04-03T15:32:30;9.40;99.90
18611;DHT22;9435;52.122;5.502;2023-04-03T15:35:00;9.50;99.90
18611;DHT22;9435;52.122;5.502;2023-04-03T15:37:28;9.50;99.90
18611;DHT22;9435;52.122;5.502;2023-04-03T15:39:55;9.50;99.90
18611;DHT22;9435;52.122;5.502;2023-04-03T15:42:22;9.40;99.90
18611;DHT22;9435;52.122;5.502;2023-04-03T15:44:49;9.30;99.90
18611;DHT22;9435;52.122;5.502;2023-04-03T15:47:16;9.20;99.90
18611;DHT22;9435;52.122;5.502;2023-04-03T15:49:43;9.20;99.90
18611;DHT22;9435;52.122;5.502;2023-04-03T15:52:12;9.10;99.90
18611;DHT22;9435;52.122;5.502;2023-04-03T15:54:39;9.20;99.90
18611;DHT22;9435;52.122;5.502;2023-04-03T15:57:07;9.20;99.90
18611;DHT22;9435;52.122;5.502;2023-04-03T15:59:34;9.30;99.90
18611;DHT22;9435;52.122;5.502;2023-04-03T16:02:04;9.20;99.90
18611;DHT22;9435;52.122;5.502;2023-04-03T16:04:33;9.20;99.90
18611;DHT22;9435;52.122;5.502;2023-04-03T16:07:02;9.20;99.90
18611;DHT22;9435;52.122;5.502;2023-04-03T16:09:31;9.20;99.90
18611;DHT22;9435;52.122;5.502;2023-04-03T16:11:59;9.00;99.90
18611;DHT22;9435;52.122;5.502;2023-04-03T16:14:27;8.90;99.90
18611;DHT22;9435;52.122;5.502;2023-04-03T16:16:56;9.10;99.90
18611;DHT22;9435;52.122;5.502;2023-04-03T16:19:23;9.00;99.90
18611;DHT22;9435;52.122;5.502;2023-04-03T16:21:50;8.80;99.90
18611;DHT22;9435;52.122;5.502;2023-04-03T16:24:18;8.90;99.90
18611;DHT22;9435;52.122;5.502;2023-04-03T16:26:47;8.90;99.90